sensor_id;sensor_type;location;lat;lon;timestamp;pressure;altitude;pressure_sealevel;temperature;humidity
56241;BME280;42155;53.096;23.226;2022-12-26T00:00:27;100516.50;;;2.04;83.89
56241;BME280;42155;53.096;23.226;2022-12-26T00:02:27;100477.16;;;1.82;83.26
56241;BME280;42155;53.096;23.226;2022-12-26T00:04:28;100494.16;;;1.94;83.59
56241;BME280;42155;53.096;23.226;2022-12-26T00:06:29;100510.50;;;2.00;83.44
56241;BME280;42155;53.096;23.226;2022-12-26T00:08:30;100514.03;;;1.99;83.21
56241;BME280;42155;53.096;23.226;2022-12-26T00:10:30;100505.50;;;1.94;83.10
56241;BME280;42155;53.096;23.226;2022-12-26T00:12:31;100442.97;;;1.62;83.01
56241;BME280;42155;53.096;23.226;2022-12-26T00:14:31;100510.59;;;1.97;83.67
56241;BME280;42155;53.096;23.226;2022-12-26T00:16:32;100459.75;;;1.81;83.48
56241;BME280;42155;53.096;23.226;2022-12-26T00:18:33;100474.09;;;1.94;83.81
56241;BME280;42155;53.096;23.226;2022-12-26T00:20:33;100499.81;;;2.07;83.73
56241;BME280;42155;53.096;23.226;2022-12-26T00:22:33;100475.16;;;1.89;83.03
56241;BME280;42155;53.096;23.226;2022-12-26T00:24:34;100486.78;;;2.05;83.34
56241;BME280;42155;53.096;23.226;2022-12-26T00:26:34;100464.06;;;1.82;83.46
56241;BME280;42155;53.096;23.226;2022-12-26T00:28:35;100505.88;;;2.07;83.77
56241;BME280;42155;53.096;23.226;2022-12-26T00:30:38;100494.56;;;2.07;83.31
56241;BME280;42155;53.096;23.226;2022-12-26T00:32:38;100505.03;;;2.07;83.69
56241;BME280;42155;53.096;23.226;2022-12-26T00:34:39;100503.34;;;2.06;83.49
56241;BME280;42155;53.096;23.226;2022-12-26T00:36:40;100517.22;;;2.08;83.19
56241;BME280;42155;53.096;23.226;2022-12-26T00:38:42;100508.41;;;2.10;83.94
56241;BME280;42155;53.096;23.226;2022-12-26T00:40:43;100492.97;;;2.02;83.34
56241;BME280;42155;53.096;23.226;2022-12-26T00:42:43;100510.84;;;2.15;83.30
56241;BME280;42155;53.096;23.226;2022-12-26T00:44:43;100505.50;;;2.18;83.18
56241;BME280;42155;53.096;23.226;2022-12-26T00:46:44;100504.59;;;2.19;83.62
56241;BME280;42155;53.096;23.226;2022-12-26T00:48:44;100496.06;;;2.14;83.16
56241;BME280;42155;53.096;23.226;2022-12-26T00:50:45;100498.50;;;2.18;83.02
56241;BME280;42155;53.096;23.226;2022-12-26T00:52:45;100489.84;;;2.16;83.16
56241;BME280;42155;53.096;23.226;2022-12-26T00:54:45;100472.00;;;2.04;83.71
56241;BME280;42155;53.096;23.226;2022-12-26T00:56:46;100487.41;;;2.12;83.20
56241;BME280;42155;53.096;23.226;2022-12-26T00:58:46;100487.28;;;2.15;83.20
56241;BME280;42155;53.096;23.226;2022-12-26T01:00:46;100468.63;;;2.00;83.24
56241;BME280;42155;53.096;23.226;2022-12-26T01:02:47;100498.63;;;2.15;83.72
56241;BME280;42155;53.096;23.226;2022-12-26T01:04:47;100495.06;;;2.16;83.05
56241;BME280;42155;53.096;23.226;2022-12-26T01:06:47;100493.47;;;2.12;83.12
56241;BME280;42155;53.096;23.226;2022-12-26T01:08:48;100503.00;;;2.15;83.19
56241;BME280;42155;53.096;23.226;2022-12-26T01:10:49;100514.22;;;2.18;83.66
56241;BME280;42155;53.096;23.226;2022-12-26T01:12:50;100523.00;;;2.17;82.98
56241;BME280;42155;53.096;23.226;2022-12-26T01:14:50;100515.13;;;2.17;83.47
56241;BME280;42155;53.096;23.226;2022-12-26T01:16:51;100476.75;;;1.93;83.30
56241;BME280;42155;53.096;23.226;2022-12-26T01:18:51;100495.94;;;2.17;83.73
56241;BME280;42155;53.096;23.226;2022-12-26T01:20:57;100482.97;;;2.14;83.86
56241;BME280;42155;53.096;23.226;2022-12-26T01:22:58;100483.25;;;2.06;83.65
56241;BME280;42155;53.096;23.226;2022-12-26T01:24:58;100489.22;;;2.10;83.48
56241;BME280;42155;53.096;23.226;2022-12-26T01:26:58;100489.28;;;2.08;84.12
56241;BME280;42155;53.096;23.226;2022-12-26T01:28:59;100485.78;;;2.08;84.07
56241;BME280;42155;53.096;23.226;2022-12-26T01:31:03;100490.00;;;2.12;83.20
56241;BME280;42155;53.096;23.226;2022-12-26T01:33:04;100481.53;;;2.05;83.82
56241;BME280;42155;53.096;23.226;2022-12-26T01:35:05;100476.31;;;2.05;83.35
56241;BME280;42155;53.096;23.226;2022-12-26T01:37:05;100454.97;;;1.92;83.33
56241;BME280;42155;53.096;23.226;2022-12-26T01:39:05;100471.81;;;2.09;83.49
56241;BME280;42155;53.096;23.226;2022-12-26T01:41:06;100453.09;;;1.96;83.84
56241;BME280;42155;53.096;23.226;2022-12-26T01:43:10;100472.66;;;2.09;83.98
56241;BME280;42155;53.096;23.226;2022-12-26T01:45:25;100477.06;;;2.09;83.62
56241;BME280;42155;53.096;23.226;2022-12-26T01:49:53;100461.56;;;2.02;83.16
56241;BME280;42155;53.096;23.226;2022-12-26T01:51:59;100468.22;;;2.11;83.18
56241;BME280;42155;53.096;23.226;2022-12-26T01:54:03;100425.94;;;1.98;83.41
56241;BME280;42155;53.096;23.226;2022-12-26T01:56:13;100407.09;;;1.89;83.22
56241;BME280;42155;53.096;23.226;2022-12-26T01:58:21;100429.94;;;2.09;83.34
56241;BME280;42155;53.096;23.226;2022-12-26T02:00:23;100430.78;;;2.09;83.42
56241;BME280;42155;53.096;23.226;2022-12-26T02:02:26;100392.59;;;1.80;83.21
56241;BME280;42155;53.096;23.226;2022-12-26T02:04:32;100429.38;;;2.00;83.79
56241;BME280;42155;53.096;23.226;2022-12-26T02:06:34;100435.69;;;1.95;83.39
56241;BME280;42155;53.096;23.226;2022-12-26T02:08:36;100445.50;;;2.12;83.20
56241;BME280;42155;53.096;23.226;2022-12-26T02:11:11;100443.81;;;2.11;83.63
56241;BME280;42155;53.096;23.226;2022-12-26T02:13:12;100452.56;;;2.10;83.49
56241;BME280;42155;53.096;23.226;2022-12-26T02:15:15;100398.66;;;1.82;83.22
56241;BME280;42155;53.096;23.226;2022-12-26T02:17:16;100440.44;;;2.07;83.21
56241;BME280;42155;53.096;23.226;2022-12-26T02:19:27;100435.16;;;2.09;83.85
56241;BME280;42155;53.096;23.226;2022-12-26T02:28:30;100409.78;;;2.11;83.57
56241;BME280;42155;53.096;23.226;2022-12-26T02:33:43;100350.63;;;1.83;83.42
56241;BME280;42155;53.096;23.226;2022-12-26T02:36:05;100397.50;;;2.13;82.97
56241;BME280;42155;53.096;23.226;2022-12-26T02:42:56;100405.28;;;2.14;83.54
56241;BME280;42155;53.096;23.226;2022-12-26T02:45:17;100389.50;;;2.16;82.85
56241;BME280;42155;53.096;23.226;2022-12-26T02:52:17;100386.94;;;2.14;82.86
56241;BME280;42155;53.096;23.226;2022-12-26T02:54:30;100367.22;;;2.06;82.88
56241;BME280;42155;53.096;23.226;2022-12-26T02:56:41;100372.34;;;2.09;82.97
56241;BME280;42155;53.096;23.226;2022-12-26T02:58:58;100377.59;;;2.07;83.20
56241;BME280;42155;53.096;23.226;2022-12-26T03:01:04;100284.41;;;1.59;82.93
56241;BME280;42155;53.096;23.226;2022-12-26T03:03:17;100329.44;;;1.89;83.01
56241;BME280;42155;53.096;23.226;2022-12-26T03:05:27;100356.75;;;2.06;83.18
56241;BME280;42155;53.096;23.226;2022-12-26T03:07:33;100331.69;;;1.98;83.56
56241;BME280;42155;53.096;23.226;2022-12-26T03:09:36;100351.41;;;2.09;83.76
56241;BME280;42155;53.096;23.226;2022-12-26T03:11:40;100342.50;;;2.13;83.14
56241;BME280;42155;53.096;23.226;2022-12-26T03:13:42;100339.88;;;2.13;82.86
56241;BME280;42155;53.096;23.226;2022-12-26T03:15:53;100330.44;;;2.09;82.96
56241;BME280;42155;53.096;23.226;2022-12-26T03:18:00;100321.78;;;2.07;83.90
56241;BME280;42155;53.096;23.226;2022-12-26T03:22:05;100310.34;;;2.09;83.44
56241;BME280;42155;53.096;23.226;2022-12-26T03:24:09;100315.22;;;2.18;82.95
56241;BME280;42155;53.096;23.226;2022-12-26T03:26:17;100298.00;;;2.13;83.47
56241;BME280;42155;53.096;23.226;2022-12-26T03:28:18;100269.03;;;1.95;83.27
56241;BME280;42155;53.096;23.226;2022-12-26T03:30:18;100302.31;;;2.14;83.23
56241;BME280;42155;53.096;23.226;2022-12-26T03:32:19;100310.84;;;2.19;83.07
56241;BME280;42155;53.096;23.226;2022-12-26T03:34:20;100307.28;;;2.20;83.64
56241;BME280;42155;53.096;23.226;2022-12-26T03:36:50;100319.47;;;2.21;82.76
56241;BME280;42155;53.096;23.226;2022-12-26T03:39:06;100319.47;;;2.21;82.92
56241;BME280;42155;53.096;23.226;2022-12-26T03:41:22;100300.81;;;2.08;83.40
56241;BME280;42155;53.096;23.226;2022-12-26T03:43:42;100256.31;;;1.86;83.22
56241;BME280;42155;53.096;23.226;2022-12-26T03:48:16;100251.47;;;1.97;83.04
56241;BME280;42155;53.096;23.226;2022-12-26T03:50:41;100286.47;;;2.17;83.45
56241;BME280;42155;53.096;23.226;2022-12-26T03:53:04;100254.25;;;1.94;83.38
56241;BME280;42155;53.096;23.226;2022-12-26T04:00:17;100282.47;;;2.08;82.86
56241;BME280;42155;53.096;23.226;2022-12-26T04:02:18;100264.34;;;2.03;83.37
56241;BME280;42155;53.096;23.226;2022-12-26T04:04:21;100249.03;;;1.93;83.15
56241;BME280;42155;53.096;23.226;2022-12-26T04:06:29;100241.94;;;1.96;83.18
56241;BME280;42155;53.096;23.226;2022-12-26T04:08:54;100257.25;;;2.06;83.37
56241;BME280;42155;53.096;23.226;2022-12-26T04:11:00;100246.44;;;1.93;83.43
56241;BME280;42155;53.096;23.226;2022-12-26T04:13:02;100273.81;;;2.06;82.95
56241;BME280;42155;53.096;23.226;2022-12-26T04:15:12;100265.13;;;2.06;83.29
56241;BME280;42155;53.096;23.226;2022-12-26T04:17:46;100267.72;;;2.06;83.30
56241;BME280;42155;53.096;23.226;2022-12-26T04:20:00;100251.25;;;2.03;83.64
56241;BME280;42155;53.096;23.226;2022-12-26T04:22:14;100259.09;;;2.03;83.65
56241;BME280;42155;53.096;23.226;2022-12-26T04:24:21;100246.03;;;2.03;83.73
56241;BME280;42155;53.096;23.226;2022-12-26T04:26:31;100227.06;;;1.97;83.59
56241;BME280;42155;53.096;23.226;2022-12-26T04:28:33;100215.47;;;2.04;82.88
56241;BME280;42155;53.096;23.226;2022-12-26T04:30:37;100212.22;;;1.97;83.26
56241;BME280;42155;53.096;23.226;2022-12-26T04:35:17;100214.53;;;2.05;83.06
56241;BME280;42155;53.096;23.226;2022-12-26T04:37:23;100214.41;;;2.08;82.86
56241;BME280;42155;53.096;23.226;2022-12-26T04:39:29;100210.03;;;2.09;83.30
56241;BME280;42155;53.096;23.226;2022-12-26T04:41:30;100178.66;;;1.87;83.02
56241;BME280;42155;53.096;23.226;2022-12-26T04:43:34;100206.59;;;2.07;83.44
56241;BME280;42155;53.096;23.226;2022-12-26T04:45:35;100207.53;;;2.06;82.85
56241;BME280;42155;53.096;23.226;2022-12-26T04:47:35;100194.81;;;1.96;83.10
56241;BME280;42155;53.096;23.226;2022-12-26T04:49:43;100173.59;;;1.82;83.55
56241;BME280;42155;53.096;23.226;2022-12-26T04:51:44;100209.28;;;2.05;83.88
56241;BME280;42155;53.096;23.226;2022-12-26T04:53:44;100207.44;;;2.07;83.07
56241;BME280;42155;53.096;23.226;2022-12-26T04:55:45;100209.19;;;2.08;83.51
56241;BME280;42155;53.096;23.226;2022-12-26T04:57:45;100203.22;;;2.04;83.25
56241;BME280;42155;53.096;23.226;2022-12-26T04:59:45;100149.44;;;1.75;83.40
56241;BME280;42155;53.096;23.226;2022-12-26T05:01:46;100202.94;;;2.11;83.11
56241;BME280;42155;53.096;23.226;2022-12-26T05:03:46;100195.28;;;2.06;82.96
56241;BME280;42155;53.096;23.226;2022-12-26T05:05:49;100151.88;;;1.80;83.82
56241;BME280;42155;53.096;23.226;2022-12-26T05:07:49;100185.63;;;2.08;83.14
56241;BME280;42155;53.096;23.226;2022-12-26T05:09:51;100179.59;;;2.06;83.60
56241;BME280;42155;53.096;23.226;2022-12-26T05:11:52;100156.47;;;1.95;83.45
56241;BME280;42155;53.096;23.226;2022-12-26T05:13:53;100179.59;;;2.06;83.74
56241;BME280;42155;53.096;23.226;2022-12-26T05:15:55;100164.72;;;2.07;83.25
56241;BME280;42155;53.096;23.226;2022-12-26T05:17:55;100158.00;;;2.01;83.69
56241;BME280;42155;53.096;23.226;2022-12-26T05:19:55;100158.84;;;2.01;83.08
56241;BME280;42155;53.096;23.226;2022-12-26T05:21:57;100171.59;;;2.09;83.75
56241;BME280;42155;53.096;23.226;2022-12-26T05:23:57;100162.94;;;2.07;83.28
56241;BME280;42155;53.096;23.226;2022-12-26T05:25:58;100166.63;;;2.03;83.39
56241;BME280;42155;53.096;23.226;2022-12-26T05:27:58;100169.97;;;2.07;83.66
56241;BME280;42155;53.096;23.226;2022-12-26T05:29:59;100146.25;;;1.89;83.46
56241;BME280;42155;53.096;23.226;2022-12-26T05:31:59;100177.69;;;2.10;83.70
56241;BME280;42155;53.096;23.226;2022-12-26T05:34:00;100171.81;;;2.04;83.37
56241;BME280;42155;53.096;23.226;2022-12-26T05:36:00;100152.94;;;1.96;83.67
56241;BME280;42155;53.096;23.226;2022-12-26T05:38:02;100142.09;;;1.85;83.52
56241;BME280;42155;53.096;23.226;2022-12-26T05:40:02;100135.94;;;1.86;83.29
56241;BME280;42155;53.096;23.226;2022-12-26T05:42:03;100166.50;;;2.06;83.30
56241;BME280;42155;53.096;23.226;2022-12-26T05:44:04;100170.81;;;2.07;83.28
56241;BME280;42155;53.096;23.226;2022-12-26T05:46:04;100151.09;;;1.98;83.21
56241;BME280;42155;53.096;23.226;2022-12-26T05:48:05;100145.88;;;1.98;83.06
56241;BME280;42155;53.096;23.226;2022-12-26T05:50:06;100150.97;;;2.01;83.37
56241;BME280;42155;53.096;23.226;2022-12-26T05:52:06;100162.91;;;2.09;83.79
56241;BME280;42155;53.096;23.226;2022-12-26T05:54:06;100153.41;;;2.06;83.78
56241;BME280;42155;53.096;23.226;2022-12-26T05:56:10;100142.28;;;2.01;84.12
56241;BME280;42155;53.096;23.226;2022-12-26T05:58:11;100147.31;;;2.06;84.00
56241;BME280;42155;53.096;23.226;2022-12-26T06:00:12;100134.13;;;2.09;83.86
56241;BME280;42155;53.096;23.226;2022-12-26T06:02:12;100121.03;;;2.09;83.57
56241;BME280;42155;53.096;23.226;2022-12-26T06:04:13;100057.28;;;1.69;83.23
56241;BME280;42155;53.096;23.226;2022-12-26T06:06:14;100110.78;;;2.02;84.05
56241;BME280;42155;53.096;23.226;2022-12-26T06:08:15;100115.91;;;2.06;83.73
56241;BME280;42155;53.096;23.226;2022-12-26T06:10:15;100109.72;;;2.08;84.15
56241;BME280;42155;53.096;23.226;2022-12-26T06:12:15;100099.22;;;2.08;84.17
56241;BME280;42155;53.096;23.226;2022-12-26T06:14:16;100098.34;;;2.08;83.67
56241;BME280;42155;53.096;23.226;2022-12-26T06:16:17;100099.16;;;2.10;83.97
56241;BME280;42155;53.096;23.226;2022-12-26T06:18:17;100082.09;;;2.01;83.50
56241;BME280;42155;53.096;23.226;2022-12-26T06:20:18;100076.06;;;1.99;84.08
56241;BME280;42155;53.096;23.226;2022-12-26T06:22:18;100079.53;;;1.99;83.87
56241;BME280;42155;53.096;23.226;2022-12-26T06:24:18;100091.59;;;2.03;84.23
56241;BME280;42155;53.096;23.226;2022-12-26T06:26:19;100084.44;;;2.07;83.83
56241;BME280;42155;53.096;23.226;2022-12-26T06:28:19;100063.31;;;1.91;83.95
56241;BME280;42155;53.096;23.226;2022-12-26T06:30:20;100049.81;;;1.80;84.04
56241;BME280;42155;53.096;23.226;2022-12-26T06:32:20;100020.13;;;1.61;84.30
56241;BME280;42155;53.096;23.226;2022-12-26T06:34:22;100077.81;;;1.98;84.27
56241;BME280;42155;53.096;23.226;2022-12-26T06:36:24;100071.50;;;2.04;83.86
56241;BME280;42155;53.096;23.226;2022-12-26T06:38:25;100068.78;;;2.06;83.98
56241;BME280;42155;53.096;23.226;2022-12-26T06:40:25;100077.41;;;2.08;83.97
56241;BME280;42155;53.096;23.226;2022-12-26T06:42:26;100022.13;;;1.76;83.91
56241;BME280;42155;53.096;23.226;2022-12-26T06:44:26;100053.09;;;2.06;83.34
56241;BME280;42155;53.096;23.226;2022-12-26T06:46:26;100029.56;;;1.85;83.58
56241;BME280;42155;53.096;23.226;2022-12-26T06:48:27;100040.69;;;1.90;84.01
56241;BME280;42155;53.096;23.226;2022-12-26T06:50:28;100035.69;;;1.84;83.73
56241;BME280;42155;53.096;23.226;2022-12-26T06:52:28;100067.16;;;2.03;83.70
56241;BME280;42155;53.096;23.226;2022-12-26T06:54:29;100054.47;;;1.94;83.53
56241;BME280;42155;53.096;23.226;2022-12-26T06:56:30;100066.38;;;2.01;83.75
56241;BME280;42155;53.096;23.226;2022-12-26T06:58:31;100073.25;;;2.03;83.45
56241;BME280;42155;53.096;23.226;2022-12-26T07:00:32;100055.97;;;1.99;83.37
56241;BME280;42155;53.096;23.226;2022-12-26T07:02:32;100048.25;;;1.96;83.90
56241;BME280;42155;53.096;23.226;2022-12-26T07:04:32;100063.47;;;2.07;83.97
56241;BME280;42155;53.096;23.226;2022-12-26T07:06:35;100077.63;;;2.03;83.80
56241;BME280;42155;53.096;23.226;2022-12-26T07:08:36;100081.34;;;1.97;83.59
56241;BME280;42155;53.096;23.226;2022-12-26T07:10:36;100021.44;;;1.71;84.02
56241;BME280;42155;53.096;23.226;2022-12-26T07:12:36;100064.53;;;2.03;84.46
56241;BME280;42155;53.096;23.226;2022-12-26T07:14:37;100060.94;;;2.06;84.12
56241;BME280;42155;53.096;23.226;2022-12-26T07:16:39;100044.31;;;2.07;83.95
56241;BME280;42155;53.096;23.226;2022-12-26T07:18:40;99991.50;;;1.78;83.87
56241;BME280;42155;53.096;23.226;2022-12-26T07:20:40;100033.13;;;2.03;83.53
56241;BME280;42155;53.096;23.226;2022-12-26T07:22:40;100018.53;;;1.97;84.21
56241;BME280;42155;53.096;23.226;2022-12-26T07:24:41;100033.84;;;2.07;83.63
56241;BME280;42155;53.096;23.226;2022-12-26T07:26:42;100034.25;;;1.97;83.77
56241;BME280;42155;53.096;23.226;2022-12-26T07:28:42;100050.28;;;2.10;84.31
56241;BME280;42155;53.096;23.226;2022-12-26T07:30:47;100020.25;;;1.98;83.80
56241;BME280;42155;53.096;23.226;2022-12-26T07:32:48;100030.16;;;2.11;83.86
56241;BME280;42155;53.096;23.226;2022-12-26T07:34:48;99962.78;;;1.76;83.92
56241;BME280;42155;53.096;23.226;2022-12-26T07:36:48;100039.59;;;2.15;84.27
56241;BME280;42155;53.096;23.226;2022-12-26T07:38:49;100022.97;;;2.16;84.21
56241;BME280;42155;53.096;23.226;2022-12-26T07:40:49;100011.34;;;2.02;83.73
56241;BME280;42155;53.096;23.226;2022-12-26T07:42:52;99997.59;;;1.97;83.86
56241;BME280;42155;53.096;23.226;2022-12-26T07:44:52;100023.13;;;2.13;83.70
56241;BME280;42155;53.096;23.226;2022-12-26T07:46:53;100018.84;;;2.10;84.14
56241;BME280;42155;53.096;23.226;2022-12-26T07:48:54;100017.16;;;2.09;83.96
56241;BME280;42155;53.096;23.226;2022-12-26T07:51:00;100012.78;;;2.10;83.91
56241;BME280;42155;53.096;23.226;2022-12-26T07:53:00;99989.13;;;1.92;83.87
56241;BME280;42155;53.096;23.226;2022-12-26T07:55:01;99993.94;;;2.01;83.82
56241;BME280;42155;53.096;23.226;2022-12-26T07:57:01;99991.41;;;2.00;83.48
56241;BME280;42155;53.096;23.226;2022-12-26T07:59:01;99965.47;;;1.94;83.68
56241;BME280;42155;53.096;23.226;2022-12-26T08:01:03;99955.22;;;1.89;84.07
56241;BME280;42155;53.096;23.226;2022-12-26T08:03:03;99975.53;;;2.03;84.08
56241;BME280;42155;53.096;23.226;2022-12-26T08:05:04;99965.94;;;2.03;83.61
56241;BME280;42155;53.096;23.226;2022-12-26T08:07:04;99948.50;;;2.02;83.52
56241;BME280;42155;53.096;23.226;2022-12-26T08:09:05;99942.38;;;2.03;83.48
56241;BME280;42155;53.096;23.226;2022-12-26T08:11:07;99921.56;;;2.00;84.09
56241;BME280;42155;53.096;23.226;2022-12-26T08:13:08;99923.41;;;1.98;83.33
56241;BME280;42155;53.096;23.226;2022-12-26T08:15:10;99928.41;;;2.03;83.97
56241;BME280;42155;53.096;23.226;2022-12-26T08:17:11;99924.06;;;2.03;83.50
56241;BME280;42155;53.096;23.226;2022-12-26T08:19:12;99922.34;;;2.02;83.94
56241;BME280;42155;53.096;23.226;2022-12-26T08:21:12;99880.84;;;1.76;83.76
56241;BME280;42155;53.096;23.226;2022-12-26T08:23:12;99917.41;;;1.96;83.79
56241;BME280;42155;53.096;23.226;2022-12-26T08:25:13;99911.31;;;1.96;83.62
56241;BME280;42155;53.096;23.226;2022-12-26T08:27:13;99913.09;;;1.95;83.67
56241;BME280;42155;53.096;23.226;2022-12-26T08:29:13;99874.81;;;1.74;83.82
56241;BME280;42155;53.096;23.226;2022-12-26T08:31:14;99871.13;;;1.78;83.97
56241;BME280;42155;53.096;23.226;2022-12-26T08:33:15;99891.56;;;1.89;84.35
56241;BME280;42155;53.096;23.226;2022-12-26T08:35:16;99889.75;;;1.91;84.22
56241;BME280;42155;53.096;23.226;2022-12-26T08:37:16;99887.06;;;1.92;84.16
56241;BME280;42155;53.096;23.226;2022-12-26T08:39:17;99889.66;;;1.92;84.53
56241;BME280;42155;53.096;23.226;2022-12-26T08:41:17;99896.59;;;1.93;84.17
56241;BME280;42155;53.096;23.226;2022-12-26T08:43:18;99806.50;;;1.42;84.09
56241;BME280;42155;53.096;23.226;2022-12-26T08:45:18;99890.38;;;1.96;84.60
56241;BME280;42155;53.096;23.226;2022-12-26T08:47:18;99898.16;;;1.97;84.08
56241;BME280;42155;53.096;23.226;2022-12-26T08:49:19;99879.69;;;2.00;83.96
56241;BME280;42155;53.096;23.226;2022-12-26T08:51:24;99860.97;;;1.91;84.25
56241;BME280;42155;53.096;23.226;2022-12-26T08:53:25;99891.09;;;1.99;84.32
56241;BME280;42155;53.096;23.226;2022-12-26T08:55:25;99880.47;;;2.02;83.96
56241;BME280;42155;53.096;23.226;2022-12-26T08:57:26;99856.44;;;1.94;83.99
56241;BME280;42155;53.096;23.226;2022-12-26T08:59:26;99862.16;;;2.02;84.37
56241;BME280;42155;53.096;23.226;2022-12-26T09:01:28;99859.53;;;2.02;84.39
56241;BME280;42155;53.096;23.226;2022-12-26T09:03:29;99855.22;;;2.01;84.17
56241;BME280;42155;53.096;23.226;2022-12-26T09:05:30;99852.59;;;2.01;84.10
56241;BME280;42155;53.096;23.226;2022-12-26T09:07:31;99841.38;;;1.99;84.08
56241;BME280;42155;53.096;23.226;2022-12-26T09:09:31;99814.13;;;1.85;84.25
56241;BME280;42155;53.096;23.226;2022-12-26T09:11:32;99759.28;;;1.64;84.05
56241;BME280;42155;53.096;23.226;2022-12-26T09:13:33;99811.09;;;1.94;83.99
56241;BME280;42155;53.096;23.226;2022-12-26T09:15:33;99784.72;;;1.79;83.80
56241;BME280;42155;53.096;23.226;2022-12-26T09:17:34;99805.16;;;1.90;84.04
56241;BME280;42155;53.096;23.226;2022-12-26T09:19:34;99790.22;;;1.92;84.46
56241;BME280;42155;53.096;23.226;2022-12-26T09:21:35;99756.16;;;1.75;84.12
56241;BME280;42155;53.096;23.226;2022-12-26T09:23:37;99701.25;;;1.39;84.31
56241;BME280;42155;53.096;23.226;2022-12-26T09:25:38;99785.00;;;1.92;84.58
56241;BME280;42155;53.096;23.226;2022-12-26T09:27:38;99795.31;;;1.95;84.65
56241;BME280;42155;53.096;23.226;2022-12-26T09:29:39;99793.63;;;1.94;84.04
56241;BME280;42155;53.096;23.226;2022-12-26T09:31:39;99770.09;;;1.75;84.17
56241;BME280;42155;53.096;23.226;2022-12-26T09:33:39;99780.06;;;1.86;84.80
56241;BME280;42155;53.096;23.226;2022-12-26T09:35:40;99782.06;;;1.98;84.34
56241;BME280;42155;53.096;23.226;2022-12-26T09:37:41;99733.41;;;1.77;84.10
56241;BME280;42155;53.096;23.226;2022-12-26T09:39:41;99770.63;;;2.01;84.03
56241;BME280;42155;53.096;23.226;2022-12-26T09:46:27;99746.22;;;2.00;84.13
56241;BME280;42155;53.096;23.226;2022-12-26T09:48:55;99736.59;;;2.01;84.49
56241;BME280;42155;53.096;23.226;2022-12-26T09:50:53;99725.59;;;1.94;84.51
56241;BME280;42155;53.096;23.226;2022-12-26T09:52:55;99712.28;;;1.99;84.29
56241;BME280;42155;53.096;23.226;2022-12-26T09:54:59;99715.75;;;1.99;84.42
56241;BME280;42155;53.096;23.226;2022-12-26T09:57:07;99709.72;;;1.97;84.77
56241;BME280;42155;53.096;23.226;2022-12-26T09:59:13;99688.78;;;1.97;84.86
56241;BME280;42155;53.096;23.226;2022-12-26T10:01:21;99692.34;;;1.96;84.60
56241;BME280;42155;53.096;23.226;2022-12-26T10:03:22;99686.16;;;1.97;84.81
56241;BME280;42155;53.096;23.226;2022-12-26T10:05:40;99677.69;;;1.92;84.45
56241;BME280;42155;53.096;23.226;2022-12-26T10:07:50;99629.03;;;1.71;84.36
56241;BME280;42155;53.096;23.226;2022-12-26T10:12:15;99683.09;;;2.07;84.53
56241;BME280;42155;53.096;23.226;2022-12-26T10:14:41;99673.47;;;2.07;84.51
56241;BME280;42155;53.096;23.226;2022-12-26T10:16:59;99670.63;;;2.12;84.02
56241;BME280;42155;53.096;23.226;2022-12-26T10:19:09;99586.66;;;1.64;84.27
56241;BME280;42155;53.096;23.226;2022-12-26T10:23:32;99659.78;;;2.19;83.99
56241;BME280;42155;53.096;23.226;2022-12-26T10:25:46;99646.59;;;2.21;84.18
56241;BME280;42155;53.096;23.226;2022-12-26T10:27:49;99625.47;;;2.08;84.13
56241;BME280;42155;53.096;23.226;2022-12-26T10:29:59;99651.59;;;2.25;84.80
56241;BME280;42155;53.096;23.226;2022-12-26T10:32:12;99641.91;;;2.10;84.29
56241;BME280;42155;53.096;23.226;2022-12-26T10:36:41;99646.34;;;2.25;84.49
56241;BME280;42155;53.096;23.226;2022-12-26T10:38:52;99662.44;;;2.35;84.20
56241;BME280;42155;53.096;23.226;2022-12-26T10:40:58;99635.66;;;2.30;84.31
56241;BME280;42155;53.096;23.226;2022-12-26T10:43:16;99626.09;;;2.29;84.40
56241;BME280;42155;53.096;23.226;2022-12-26T10:48:13;99603.03;;;2.20;84.69
56241;BME280;42155;53.096;23.226;2022-12-26T10:50:17;99595.03;;;2.23;84.45
56241;BME280;42155;53.096;23.226;2022-12-26T10:52:24;99600.13;;;2.42;84.39
56241;BME280;42155;53.096;23.226;2022-12-26T10:54:27;99569.44;;;2.28;84.54
56241;BME280;42155;53.096;23.226;2022-12-26T10:56:30;99591.25;;;2.44;84.23
56241;BME280;42155;53.096;23.226;2022-12-26T10:58:33;99596.34;;;2.47;84.95
56241;BME280;42155;53.096;23.226;2022-12-26T11:00:34;99598.03;;;2.48;84.78
56241;BME280;42155;53.096;23.226;2022-12-26T11:02:35;99597.88;;;2.51;84.80
56241;BME280;42155;53.096;23.226;2022-12-26T11:04:35;99574.63;;;2.45;84.58
56241;BME280;42155;53.096;23.226;2022-12-26T11:06:37;99558.53;;;2.36;84.43
56241;BME280;42155;53.096;23.226;2022-12-26T11:08:48;99601.69;;;2.62;84.55
56241;BME280;42155;53.096;23.226;2022-12-26T11:13:05;99597.13;;;2.65;84.19
56241;BME280;42155;53.096;23.226;2022-12-26T11:15:26;99567.44;;;2.49;84.62
56241;BME280;42155;53.096;23.226;2022-12-26T11:17:31;99535.91;;;2.35;84.71
56241;BME280;42155;53.096;23.226;2022-12-26T11:19:41;99587.00;;;2.75;85.03
56241;BME280;42155;53.096;23.226;2022-12-26T11:21:42;99574.06;;;2.72;84.01
56241;BME280;42155;53.096;23.226;2022-12-26T11:23:43;99557.84;;;2.65;84.65
56241;BME280;42155;53.096;23.226;2022-12-26T11:25:51;99580.56;;;2.80;84.37
56241;BME280;42155;53.096;23.226;2022-12-26T11:27:56;99566.28;;;2.86;84.75
56241;BME280;42155;53.096;23.226;2022-12-26T11:32:19;99558.09;;;2.92;84.98
56241;BME280;42155;53.096;23.226;2022-12-26T11:34:25;99531.78;;;2.94;84.26
56241;BME280;42155;53.096;23.226;2022-12-26T11:36:29;99509.91;;;2.79;84.56
56241;BME280;42155;53.096;23.226;2022-12-26T11:38:31;99504.69;;;2.79;84.40
56241;BME280;42155;53.096;23.226;2022-12-26T11:40:37;99539.56;;;2.95;84.38